createdAt,value
2022-08-07T00:00:40.193Z,96697.94
2022-08-07T00:03:08.754Z,96690.38
2022-08-07T00:05:36.145Z,96700.66
2022-08-07T00:08:04.644Z,96704.19
2022-08-07T00:10:31.636Z,96695.34
2022-08-07T00:13:17.608Z,96699.69
2022-08-07T00:15:50.949Z,96705.22
2022-08-07T00:18:24.295Z,96710.97
2022-08-07T00:21:02.001Z,96705.91
2022-08-07T00:23:36.599Z,96710.63
2022-08-07T00:26:18.565Z,96704.84
2022-08-07T00:28:56.429Z,96708.16
2022-08-07T00:31:38.029Z,96704.06
2022-08-07T00:34:08.821Z,96717.56
2022-08-07T00:36:35.935Z,96721.28
2022-08-07T00:39:05.173Z,96714.50
2022-08-07T00:41:33.678Z,96719.84
2022-08-07T00:44:12.141Z,96711.84
2022-08-07T00:46:41.498Z,96711.88
2022-08-07T00:49:10.256Z,96708.97
2022-08-07T00:51:57.164Z,96713.69
2022-08-07T00:54:25.359Z,96710.88
2022-08-07T00:56:52.262Z,96708.41
2022-08-07T00:59:35.232Z,96708.03
2022-08-07T01:02:03.945Z,96711.09
2022-08-07T01:04:40.094Z,96699.84
2022-08-07T01:07:11.049Z,96701.06
2022-08-07T01:10:04.608Z,96695.38
2022-08-07T01:12:30.150Z,96701.09
2022-08-07T01:15:01.207Z,96697.84
2022-08-07T01:17:31.140Z,96699.88
2022-08-07T01:20:03.862Z,96702.31
2022-08-07T01:22:31.583Z,96702.94
2022-08-07T01:24:58.761Z,96699.66
2022-08-07T01:27:25.392Z,96693.53
2022-08-07T01:29:59.585Z,96690.69
2022-08-07T01:32:27.404Z,96694.56
2022-08-07T01:34:56.356Z,96686.34
2022-08-07T01:37:24.387Z,96693.91
2022-08-07T01:39:52.085Z,96686.13
2022-08-07T01:42:40.219Z,96685.94
2022-08-07T01:45:09.723Z,96690.41
2022-08-07T01:48:19.572Z,96688.19
2022-08-07T01:50:31.176Z,96684.09
2022-08-07T01:53:00.091Z,96678.75
2022-08-07T01:55:29.448Z,96669.75
2022-08-07T01:58:06.707Z,96675.06
2022-08-07T02:00:58.063Z,96674.25
2022-08-07T02:03:50.363Z,96679.56
2022-08-07T02:06:31.216Z,96669.13
2022-08-07T02:09:03.813Z,96669.72
2022-08-07T02:12:02.741Z,96667.22
2022-08-07T02:14:35.987Z,96672.13
2022-08-07T02:17:07.812Z,96668.41
2022-08-07T02:20:05.435Z,96670.84
2022-08-07T02:22:26.131Z,96664.31
2022-08-07T02:24:57.434Z,96662.66
2022-08-07T02:27:26.597Z,96659.34
2022-08-07T02:30:03.971Z,96658.91
2022-08-07T02:32:39.693Z,96657.03
2022-08-07T02:36:30.296Z,96658.44
2022-08-07T02:38:12.971Z,96653.75
2022-08-07T02:40:44.589Z,96654.38
2022-08-07T02:43:16.168Z,96654.50
2022-08-07T02:46:00.681Z,96645.69
2022-08-07T02:48:28.991Z,96657.59
2022-08-07T02:50:57.556Z,96654.88
2022-08-07T02:53:31.357Z,96664.94
2022-08-07T02:56:17.463Z,96665.16
2022-08-07T02:58:50.006Z,96654.28
2022-08-07T03:01:36.478Z,96664.94
2022-08-07T03:04:12.544Z,96663.47
2022-08-07T03:06:42.140Z,96661.22
2022-08-07T03:09:11.695Z,96661.63
2022-08-07T03:11:52.185Z,96664.06
2022-08-07T03:14:26.308Z,96667.34
2022-08-07T03:16:55.626Z,96668.75
2022-08-07T03:19:22.829Z,96667.31
2022-08-07T03:21:51.030Z,96659.97
2022-08-07T03:24:26.951Z,96660.41
2022-08-07T03:26:59.978Z,96671.66
2022-08-07T03:29:32.131Z,96664.69
2022-08-07T03:32:04.360Z,96668.56
2022-08-07T03:34:32.979Z,96675.50
2022-08-07T03:37:12.636Z,96675.50
2022-08-07T03:39:46.474Z,96676.75
2022-08-07T03:42:27.135Z,96675.34
2022-08-07T03:44:57.771Z,96668.56
2022-08-07T03:47:25.800Z,96655.84
2022-08-07T03:49:56.984Z,96668.56
2022-08-07T03:52:27.352Z,96660.31
2022-08-07T03:55:06.083Z,96667.09
2022-08-07T03:58:34.194Z,96661.50
2022-08-07T04:00:30.434Z,96662.63
2022-08-07T04:03:03.973Z,96665.44
2022-08-07T04:05:39.512Z,96663.56
2022-08-07T04:08:13.061Z,96657.81
2022-08-07T04:10:54.199Z,96663.91
2022-08-07T04:14:09.466Z,96659.72
2022-08-07T04:16:19.903Z,96671.44
2022-08-07T04:19:03.728Z,96666.25
2022-08-07T04:21:33.578Z,96668.91
2022-08-07T04:24:06.059Z,96667.19
2022-08-07T04:26:35.104Z,96664.13
2022-08-07T04:29:02.970Z,96664.06
2022-08-07T04:31:38.657Z,96667.66
2022-08-07T04:34:24.273Z,96671.88
2022-08-07T04:37:00.247Z,96672.06
2022-08-07T04:39:35.777Z,96674.72
2022-08-07T04:42:04.005Z,96675.09
2022-08-07T04:44:31.017Z,96682.91
2022-08-07T04:47:23.676Z,96684.03
2022-08-07T04:50:06.330Z,96686.09
2022-08-07T04:52:52.543Z,96680.84
2022-08-07T04:58:16.217Z,96686.69
2022-08-07T04:59:15.857Z,96686.59
2022-08-07T05:02:00.160Z,96683.00
2022-08-07T05:04:43.874Z,96686.63
2022-08-07T05:07:27.583Z,96686.44
2022-08-07T05:10:12.706Z,96687.03
2022-08-07T05:12:52.988Z,96674.88
2022-08-07T05:15:26.751Z,96679.31
2022-08-07T05:18:08.514Z,96678.88
2022-08-07T05:20:46.740Z,96685.41
2022-08-07T05:23:30.009Z,96681.25
2022-08-07T05:26:13.822Z,96669.81
2022-08-07T05:28:46.667Z,96683.03
2022-08-07T05:31:18.473Z,96676.94
2022-08-07T05:34:01.299Z,96684.31
2022-08-07T05:36:35.684Z,96675.41
2022-08-07T05:40:05.457Z,96678.13
2022-08-07T05:42:01.750Z,96680.38
2022-08-07T05:44:31.772Z,96686.72
2022-08-07T05:47:01.211Z,96680.59
2022-08-07T05:49:40.374Z,96676.53
2022-08-07T05:52:11.418Z,96687.50
2022-08-07T05:54:44.295Z,96690.00
2022-08-07T05:57:21.668Z,96683.03
2022-08-07T05:59:57.576Z,96687.66
2022-08-07T06:02:28.923Z,96689.38
2022-08-07T06:05:03.612Z,96683.13
2022-08-07T06:08:13.070Z,96694.19
2022-08-07T06:10:17.936Z,96695.09
2022-08-07T06:12:46.029Z,96697.22
2022-08-07T06:15:19.699Z,96687.13
2022-08-07T06:17:53.480Z,96689.28
2022-08-07T06:20:25.548Z,96688.44
2022-08-07T06:23:02.188Z,96692.47
2022-08-07T06:25:54.873Z,96686.69
2022-08-07T06:28:27.139Z,96695.34
2022-08-07T06:30:54.901Z,96691.69
2022-08-07T06:33:22.536Z,96698.72
2022-08-07T06:36:12.179Z,96682.94
2022-08-07T06:38:36.088Z,96688.88
2022-08-07T06:41:09.702Z,96685.06
2022-08-07T06:43:45.998Z,96687.53
2022-08-07T06:46:14.643Z,96684.03
2022-08-07T06:48:47.534Z,96687.38
2022-08-07T06:51:31.220Z,96684.38
2022-08-07T06:55:29.404Z,96685.09
2022-08-07T06:56:51.352Z,96682.75
2022-08-07T07:00:13.438Z,96685.13
2022-08-07T07:02:54.402Z,96676.78
2022-08-07T07:05:04.749Z,96676.06
2022-08-07T07:08:00.410Z,96684.75
2022-08-07T07:10:29.807Z,96674.94
2022-08-07T07:13:07.676Z,96671.31
2022-08-07T07:15:43.422Z,96679.59
2022-08-07T07:18:47.458Z,96670.53
2022-08-07T07:21:19.626Z,96674.63
2022-08-07T07:24:09.264Z,96668.06
2022-08-07T07:26:38.084Z,96675.19
2022-08-07T07:29:56.364Z,96664.97
2022-08-07T07:32:06.310Z,96664.69
2022-08-07T07:34:36.462Z,96662.13
2022-08-07T07:37:22.181Z,96663.13
2022-08-07T07:40:00.240Z,96653.59
2022-08-07T07:42:33.019Z,96653.91
2022-08-07T07:45:06.158Z,96661.97
2022-08-07T07:47:42.833Z,96653.84
2022-08-07T07:50:34.646Z,96647.25
2022-08-07T07:53:13.696Z,96645.78
2022-08-07T07:55:54.820Z,96650.41
2022-08-07T07:58:29.768Z,96645.72
2022-08-07T08:00:58.573Z,96646.22
2022-08-07T08:04:10.162Z,96640.72
2022-08-07T08:06:16.312Z,96647.75
2022-08-07T08:08:44.918Z,96635.41
2022-08-07T08:11:17.990Z,96648.75
2022-08-07T08:14:02.147Z,96646.66
2022-08-07T08:16:40.083Z,96630.50
2022-08-07T08:19:17.793Z,96629.69
2022-08-07T08:22:17.321Z,96626.69
2022-08-07T08:25:24.844Z,96631.44
2022-08-07T08:27:57.548Z,96631.13
2022-08-07T08:30:29.938Z,96630.31
2022-08-07T08:33:01.815Z,96640.41
2022-08-07T08:35:42.949Z,96628.16
2022-08-07T08:38:20.740Z,96625.09
2022-08-07T08:41:17.384Z,96635.72
2022-08-07T08:44:09.630Z,96630.28
2022-08-07T08:46:48.867Z,96637.78
2022-08-07T08:49:46.323Z,96642.94
2022-08-07T08:52:32.285Z,96639.59
2022-08-07T08:55:07.684Z,96634.97
2022-08-07T08:57:48.908Z,96641.31
2022-08-07T09:00:17.891Z,96644.06
2022-08-07T09:03:10.218Z,96633.66
2022-08-07T09:05:53.069Z,96628.03
2022-08-07T09:08:33.642Z,96638.16
2022-08-07T09:11:43.815Z,96637.28
2022-08-07T09:14:27.682Z,96625.66
2022-08-07T09:17:33.990Z,96631.03
2022-08-07T09:20:58.007Z,96632.75
2022-08-07T09:24:31.219Z,96628.91
2022-08-07T09:27:04.682Z,96630.75
2022-08-07T09:30:06.308Z,96627.78
2022-08-07T09:33:16.790Z,96629.91
2022-08-07T09:36:05.999Z,96631.00
2022-08-07T09:38:50.132Z,96626.41
2022-08-07T09:41:59.033Z,96630.13
2022-08-07T09:47:52.708Z,96632.34
2022-08-07T09:48:06.311Z,96625.31
2022-08-07T09:51:03.487Z,96625.41
2022-08-07T09:53:48.990Z,96621.03
2022-08-07T09:56:47.883Z,96607.16
2022-08-07T10:00:01.297Z,96596.66
2022-08-07T10:03:08.239Z,96607.38
2022-08-07T10:06:09.012Z,96602.19
2022-08-07T10:08:57.011Z,96606.59
2022-08-07T10:12:02.067Z,96602.91
2022-08-07T10:14:43.670Z,96609.81
2022-08-07T10:17:20.715Z,96606.41
2022-08-07T10:19:55.876Z,96603.28
2022-08-07T10:22:39.490Z,96600.06
2022-08-07T10:25:12.879Z,96600.38
2022-08-07T10:28:03.278Z,96606.28
2022-08-07T10:30:39.053Z,96591.94
2022-08-07T10:33:15.277Z,96587.03
2022-08-07T10:36:12.534Z,96591.72
2022-08-07T10:38:51.526Z,96586.94
2022-08-07T10:41:46.473Z,96583.91
2022-08-07T10:44:28.706Z,96592.22
2022-08-07T10:47:52.730Z,96586.84
2022-08-07T10:50:28.026Z,96584.94
2022-08-07T10:53:13.389Z,96586.81
2022-08-07T10:56:02.286Z,96585.84
2022-08-07T10:58:59.983Z,96573.50
2022-08-07T11:01:51.999Z,96582.06
2022-08-07T11:04:46.093Z,96580.97
2022-08-07T11:07:58.923Z,96558.63
2022-08-07T11:10:59.848Z,96553.97
2022-08-07T11:14:46.136Z,96552.16
2022-08-07T11:16:41.544Z,96551.50
2022-08-07T11:19:30.951Z,96556.22
2022-08-07T11:22:37.159Z,96555.06
2022-08-07T11:25:48.131Z,96544.91
2022-08-07T11:28:17.684Z,96541.38
2022-08-07T11:31:02.105Z,96545.25
2022-08-07T11:33:53.628Z,96548.47
2022-08-07T11:37:00.466Z,96545.00
2022-08-07T11:39:59.521Z,96529.50
2022-08-07T11:42:29.497Z,96524.81
2022-08-07T11:45:23.776Z,96528.84
2022-08-07T11:48:46.679Z,96527.88
2022-08-07T11:51:46.849Z,96531.50
2022-08-07T11:54:36.447Z,96528.50
2022-08-07T11:57:58.169Z,96524.69
2022-08-07T12:00:28.486Z,96519.31
2022-08-07T12:03:44.498Z,96523.31
2022-08-07T12:06:37.878Z,96524.47
2022-08-07T12:09:16.700Z,96516.25
2022-08-07T12:12:10.408Z,96524.94
2022-08-07T12:15:01.962Z,96515.03
2022-08-07T12:17:58.793Z,96512.97
2022-08-07T12:20:46.329Z,96509.22
2022-08-07T12:24:06.808Z,96504.81
2022-08-07T12:26:47.029Z,96493.47
2022-08-07T12:29:52.460Z,96497.00
2022-08-07T12:32:38.038Z,96496.72
2022-08-07T12:35:09.919Z,96491.19
2022-08-07T12:38:09.227Z,96489.56
2022-08-07T12:40:47.348Z,96487.69
2022-08-07T12:44:02.349Z,96492.53
2022-08-07T12:46:15.817Z,96483.09
2022-08-07T12:49:25.689Z,96481.44
2022-08-07T12:52:19.147Z,96479.00
2022-08-07T12:55:09.376Z,96471.03
2022-08-07T12:57:59.143Z,96476.56
2022-08-07T13:00:35.957Z,96485.25
2022-08-07T13:03:53.507Z,96485.88
2022-08-07T13:06:32.467Z,96470.00
2022-08-07T13:10:18.963Z,96465.53
2022-08-07T13:12:31.914Z,96464.09
2022-08-07T13:15:31.578Z,96460.47
2022-08-07T13:18:26.860Z,96463.44
2022-08-07T13:21:37.305Z,96457.25
2022-08-07T13:24:20.338Z,96458.88
2022-08-07T13:27:20.713Z,96458.09
2022-08-07T13:29:58.570Z,96445.06
2022-08-07T13:32:38.545Z,96448.44
2022-08-07T13:36:00.247Z,96455.72
2022-08-07T13:38:29.111Z,96430.16
2022-08-07T13:41:06.052Z,96446.94
2022-08-07T13:43:42.780Z,96445.47
2022-08-07T13:46:25.515Z,96434.16
2022-08-07T13:49:00.005Z,96429.03
2022-08-07T13:52:22.200Z,96427.91
2022-08-07T13:54:23.566Z,96428.47
2022-08-07T13:56:59.524Z,96429.91
2022-08-07T13:59:33.192Z,96418.66
2022-08-07T14:02:10.869Z,96415.81
2022-08-07T14:04:54.345Z,96428.34
2022-08-07T14:07:24.928Z,96418.94
2022-08-07T14:10:12.147Z,96425.16
2022-08-07T14:12:55.898Z,96419.16
2022-08-07T14:15:31.651Z,96429.00
2022-08-07T14:18:13.137Z,96417.78
2022-08-07T14:21:07.977Z,96416.63
2022-08-07T14:24:00.801Z,96412.56
2022-08-07T14:26:51.284Z,96412.44
2022-08-07T14:30:07.139Z,96410.00
2022-08-07T14:32:12.504Z,96409.66
2022-08-07T14:34:47.102Z,96407.06
2022-08-07T14:37:17.715Z,96404.25
2022-08-07T14:42:59.967Z,96399.25
2022-08-07T14:45:48.675Z,96402.44
2022-08-07T14:48:19.628Z,96403.03
2022-08-07T14:50:48.803Z,96400.25
2022-08-07T14:54:08.957Z,96410.38
2022-08-07T14:56:13.045Z,96400.66
2022-08-07T14:58:44.529Z,96399.03
2022-08-07T15:01:22.741Z,96402.56
2022-08-07T15:03:53.279Z,96400.25
2022-08-07T15:06:25.619Z,96407.47
2022-08-07T15:11:54.528Z,96403.09
2022-08-07T15:14:30.366Z,96405.97
2022-08-07T15:17:01.138Z,96393.44
2022-08-07T15:20:23.524Z,96402.75
2022-08-07T15:22:29.188Z,96388.97
2022-08-07T15:28:32.416Z,96398.22
2022-08-07T15:31:04.517Z,96388.06
2022-08-07T15:39:12.292Z,96393.69
2022-08-07T15:42:45.977Z,96381.41
2022-08-07T15:44:53.768Z,96382.72
2022-08-07T15:47:59.906Z,96380.84
2022-08-07T15:50:37.785Z,96380.66
2022-08-07T15:53:24.523Z,96377.28
2022-08-07T15:56:13.429Z,96378.44
2022-08-07T15:58:53.346Z,96378.31
2022-08-07T16:01:39.414Z,96375.72
2022-08-07T16:04:15.170Z,96367.19
2022-08-07T16:06:53.135Z,96365.09
2022-08-07T16:09:42.173Z,96368.53
2022-08-07T16:12:42.666Z,96369.22
2022-08-07T16:15:55.731Z,96367.84
2022-08-07T16:18:50.110Z,96367.16
2022-08-07T16:22:05.138Z,96362.06
2022-08-07T16:24:55.775Z,96357.94
2022-08-07T16:27:40.766Z,96359.22
2022-08-07T16:30:30.885Z,96356.81
2022-08-07T16:34:02.073Z,96355.16
2022-08-07T16:36:33.927Z,96357.59
2022-08-07T16:39:33.676Z,96355.00
2022-08-07T16:42:41.989Z,96355.84
2022-08-07T16:46:33.602Z,96353.00
2022-08-07T16:50:28.931Z,96354.91
2022-08-07T16:52:48.749Z,96356.22
2022-08-07T16:54:55.692Z,96346.75
2022-08-07T16:58:02.231Z,96357.03
2022-08-07T17:00:30.808Z,96346.75
2022-08-07T17:03:17.916Z,96350.28
2022-08-07T17:06:02.060Z,96352.41
2022-08-07T17:09:10.747Z,96355.22
2022-08-07T17:12:04.914Z,96352.78
2022-08-07T17:14:46.564Z,96354.38
2022-08-07T17:17:49.083Z,96358.53
2022-08-07T17:20:41.252Z,96357.31
2022-08-07T17:23:31.959Z,96358.31
2022-08-07T17:26:24.147Z,96355.69
2022-08-07T17:30:12.352Z,96357.81
2022-08-07T17:32:51.875Z,96360.63
2022-08-07T17:35:50.882Z,96359.28
2022-08-07T17:38:33.426Z,96358.28
2022-08-07T17:42:04.733Z,96369.03
2022-08-07T17:44:33.852Z,96366.59
2022-08-07T17:47:37.899Z,96365.88
2022-08-07T17:50:18.981Z,96370.88
2022-08-07T17:53:59.672Z,96369.09
2022-08-07T17:56:13.571Z,96370.41
2022-08-07T17:58:56.849Z,96371.06
2022-08-07T18:01:59.300Z,96374.53
2022-08-07T18:04:42.120Z,96366.53
2022-08-07T18:07:24.631Z,96375.22
2022-08-07T18:10:32.671Z,96372.34
2022-08-07T18:12:59.951Z,96370.47
2022-08-07T18:15:32.715Z,96381.31
2022-08-07T18:18:47.271Z,96383.56
2022-08-07T18:21:28.201Z,96385.47
2022-08-07T18:24:08.826Z,96393.00
2022-08-07T18:27:10.074Z,96391.63
2022-08-07T18:30:07.511Z,96408.53
2022-08-07T18:32:46.468Z,96404.88
2022-08-07T18:35:31.087Z,96411.19
2022-08-07T18:38:56.297Z,96427.22
2022-08-07T18:41:54.246Z,96429.78
2022-08-07T18:45:44.065Z,96423.75
2022-08-07T18:48:02.586Z,96430.38
2022-08-07T18:50:40.637Z,96435.53
2022-08-07T18:53:39.928Z,96442.34
2022-08-07T18:56:36.118Z,96452.59
2022-08-07T18:59:46.859Z,96452.91
2022-08-07T19:02:42.571Z,96449.63
2022-08-07T19:06:02.719Z,96454.19
2022-08-07T19:08:29.611Z,96466.25
2022-08-07T19:11:36.194Z,96477.00
2022-08-07T19:13:58.431Z,96481.22
2022-08-07T19:17:04.157Z,96479.81
2022-08-07T19:19:32.995Z,96480.03
2022-08-07T19:22:11.338Z,96497.47
2022-08-07T19:24:48.028Z,96501.22
2022-08-07T19:28:31.057Z,96500.50
2022-08-07T19:30:57.504Z,96495.88
2022-08-07T19:33:12.801Z,96494.84
2022-08-07T19:35:42.313Z,96498.63
2022-08-07T19:38:17.272Z,96512.59
2022-08-07T19:40:49.248Z,96500.41
2022-08-07T19:43:43.749Z,96503.75
2022-08-07T19:46:11.619Z,96510.16
2022-08-07T19:48:44.424Z,96505.25
2022-08-07T19:51:50.608Z,96502.22
2022-08-07T19:54:33.334Z,96502.03
2022-08-07T19:57:56.881Z,96498.59
2022-08-07T19:59:54.051Z,96496.22
2022-08-07T20:02:35.070Z,96503.09
2022-08-07T20:05:08.549Z,96496.78
2022-08-07T20:07:46.381Z,96503.63
2022-08-07T20:10:35.472Z,96508.41
2022-08-07T20:13:23.167Z,96513.38
2022-08-07T20:15:53.733Z,96505.50
2022-08-07T20:18:32.684Z,96500.97
2022-08-07T20:21:02.970Z,96498.28
2022-08-07T20:23:40.709Z,96502.91
2022-08-07T20:26:12.853Z,96495.72
2022-08-07T20:28:52.127Z,96493.88
2022-08-07T20:31:21.682Z,96501.03
2022-08-07T20:33:56.713Z,96490.31
2022-08-07T20:36:27.136Z,96488.94
2022-08-07T20:39:00.283Z,96495.66
2022-08-07T20:41:34.015Z,96489.63
2022-08-07T20:44:10.324Z,96506.88
2022-08-07T20:46:43.190Z,96499.28
2022-08-07T20:49:58.115Z,96499.94
2022-08-07T20:52:06.654Z,96502.00
2022-08-07T20:54:45.555Z,96500.13
2022-08-07T20:57:22.335Z,96504.25
2022-08-07T21:00:07.319Z,96501.69
2022-08-07T21:02:59.969Z,96494.78
2022-08-07T21:05:50.866Z,96487.56
2022-08-07T21:08:25.440Z,96504.66
2022-08-07T21:11:04.959Z,96493.63
2022-08-07T21:13:43.998Z,96497.19
2022-08-07T21:16:34.012Z,96499.59
2022-08-07T21:19:03.012Z,96505.66
2022-08-07T21:21:49.290Z,96509.38
2022-08-07T21:24:48.002Z,96511.47
2022-08-07T21:27:18.378Z,96511.16
2022-08-07T21:29:55.016Z,96507.91
2022-08-07T21:32:48.765Z,96512.56
2022-08-07T21:35:34.721Z,96517.66
2022-08-07T21:38:28.550Z,96517.22
2022-08-07T21:41:38.342Z,96516.50
2022-08-07T21:44:35.697Z,96516.16
2022-08-07T21:47:17.356Z,96520.06
2022-08-07T21:50:02.023Z,96526.38
2022-08-07T21:52:49.711Z,96526.63
2022-08-07T21:55:29.876Z,96530.25
2022-08-07T21:58:09.135Z,96536.97
2022-08-07T22:00:45.786Z,96530.31
2022-08-07T22:03:35.400Z,96531.34
2022-08-07T22:06:30.961Z,96533.88
2022-08-07T22:09:10.265Z,96537.19
2022-08-07T22:12:05.020Z,96532.31
2022-08-07T22:14:38.836Z,96535.91
2022-08-07T22:17:27.111Z,96532.97
2022-08-07T22:20:23.463Z,96532.84
2022-08-07T22:22:59.247Z,96530.75
2022-08-07T22:25:51.052Z,96530.03
2022-08-07T22:28:48.321Z,96530.47
2022-08-07T22:31:56.340Z,96525.13
2022-08-07T22:34:35.532Z,96538.38
2022-08-07T22:37:09.151Z,96527.75
2022-08-07T22:39:54.812Z,96524.16
2022-08-07T22:42:25.783Z,96528.31
2022-08-07T22:44:58.771Z,96529.66
2022-08-07T22:47:49.381Z,96536.13
2022-08-07T22:50:29.119Z,96539.06
2022-08-07T22:53:18.884Z,96526.28
2022-08-07T22:56:12.989Z,96535.28
2022-08-07T22:59:01.692Z,96525.84
2022-08-07T23:02:03.680Z,96533.16
2022-08-07T23:04:57.696Z,96535.25
2022-08-07T23:08:22.354Z,96529.59
2022-08-07T23:11:29.131Z,96535.22
2022-08-07T23:14:25.760Z,96533.47
2022-08-07T23:17:08.567Z,96535.81
2022-08-07T23:20:38.456Z,96537.59
2022-08-07T23:24:05.856Z,96538.31
2022-08-07T23:26:39.142Z,96537.06
2022-08-07T23:30:35.340Z,96534.22
2022-08-07T23:34:33.671Z,96538.16
2022-08-07T23:36:29.131Z,96531.06
2022-08-07T23:39:21.988Z,96532.22
2022-08-07T23:42:21.698Z,96534.38
2022-08-07T23:45:03.083Z,96528.69
2022-08-07T23:48:10.380Z,96529.97
2022-08-07T23:50:49.280Z,96535.44
2022-08-07T23:53:51.173Z,96525.03
2022-08-07T23:56:37.767Z,96533.78
2022-08-07T23:59:10.781Z,96546.56
